Time;durP1;ratioP1;P1;durP2;ratioP2;P2;SDS_P1;SDS_P2;PMS_P1;PMS_P2;Temp;Humidity;BMP_temperature;BMP_pressure;BME280_temperature;BME280_humidity;BME280_pressure;Samples;Min_cycle;Max_cycle;Signal;HPM_P1;HPM_P2
2023/06/08 00:02:07;;;;;;;9.95;5.55;;;;;;;18.26;100.00;100327.14;1432754;90;22449;-81
2023/06/08 00:04:33;;;;;;;11.75;5.45;;;;;;;18.27;100.00;100324.79;1430959;90;21423;-81
2023/06/08 00:07:03;;;;;;;7.65;5.80;;;;;;;18.25;100.00;100322.30;1435889;87;21486;-81
2023/06/08 00:09:30;;;;;;;8.10;5.00;;;;;;;18.26;100.00;100323.12;1466011;88;21442;-81
2023/06/08 00:11:58;;;;;;;5.80;5.20;;;;;;;18.28;100.00;100318.39;1480051;88;23345;-81
2023/06/08 00:14:24;;;;;;;10.98;5.42;;;;;;;18.29;100.00;100317.36;1480071;88;21472;-81
2023/06/08 00:16:51;;;;;;;6.37;5.15;;;;;;;18.28;100.00;100320.25;1478462;88;22309;-81
2023/06/08 00:19:17;;;;;;;9.10;5.05;;;;;;;18.24;100.00;100318.47;1476676;88;21553;-81
2023/06/08 00:21:44;;;;;;;12.93;5.37;;;;;;;18.22;100.00;100321.87;1476443;88;21426;-81
2023/06/08 00:24:11;;;;;;;11.00;5.03;;;;;;;18.18;100.00;100316.59;1483051;88;21630;-80
2023/06/08 00:26:37;;;;;;;12.25;4.95;;;;;;;18.14;100.00;100322.87;1482032;88;21442;-79
2023/06/08 00:29:04;;;;;;;9.18;5.15;;;;;;;18.13;100.00;100321.75;1468051;87;22278;-80
2023/06/08 00:31:30;;;;;;;10.65;5.70;;;;;;;18.12;100.00;100316.05;1476784;88;21948;-81
2023/06/08 00:33:56;;;;;;;6.75;4.75;;;;;;;18.12;100.00;100317.39;1480136;88;21527;-79
2023/06/08 00:36:22;;;;;;;18.50;5.42;;;;;;;18.08;100.00;100318.83;1464207;87;21472;-81
2023/06/08 00:38:48;;;;;;;8.73;5.47;;;;;;;18.07;100.00;100314.48;1480641;88;22299;-80
2023/06/08 00:41:14;;;;;;;13.98;5.37;;;;;;;18.13;100.00;100316.39;1476406;88;21361;-80
2023/06/08 00:43:45;;;;;;;9.45;5.53;;;;;;;18.15;100.00;100313.80;1480356;88;21560;-79
2023/06/08 00:46:14;;;;;;;6.37;5.37;;;;;;;18.16;100.00;100306.61;1477060;88;21412;-82
2023/06/08 00:48:41;;;;;;;16.32;6.42;;;;;;;18.19;100.00;100308.89;1472896;88;21449;-80
2023/06/08 00:51:08;;;;;;;17.12;6.15;;;;;;;18.20;100.00;100311.87;1471443;88;21427;-80
2023/06/08 00:53:37;;;;;;;11.68;5.45;;;;;;;18.20;100.00;100307.85;1476382;88;21435;-80
2023/06/08 00:56:06;;;;;;;11.35;6.28;;;;;;;18.21;100.00;100306.81;1476828;88;21487;-80
2023/06/08 00:58:33;;;;;;;7.22;5.60;;;;;;;18.20;100.00;100305.17;1481851;88;21450;-80
2023/06/08 01:01:01;;;;;;;8.00;5.40;;;;;;;18.20;100.00;100303.31;1473387;88;21627;-80
2023/06/08 01:03:35;;;;;;;8.53;5.75;;;;;;;18.22;100.00;100307.15;1478539;88;21538;-80
2023/06/08 01:06:08;;;;;;;7.22;5.42;;;;;;;18.25;100.00;100302.72;1476386;88;21479;-80
2023/06/08 01:08:54;;;;;;;8.28;4.83;;;;;;;18.23;100.00;100300.23;1477123;88;21420;-80
2023/06/08 01:11:38;;;;;;;16.37;5.35;;;;;;;18.23;100.00;100298.89;1479144;88;21450;-80
2023/06/08 01:14:25;;;;;;;5.95;5.40;;;;;;;18.23;100.00;100296.73;1475750;88;23027;-81
2023/06/08 01:16:56;;;;;;;15.93;6.53;;;;;;;18.24;100.00;100299.71;1483814;88;21701;-80
2023/06/08 01:19:48;;;;;;;7.60;5.10;;;;;;;18.24;100.00;100297.03;1479203;88;22308;-80
2023/06/08 01:22:22;;;;;;;10.68;5.42;;;;;;;18.25;100.00;100298.70;1483332;88;22234;-80
2023/06/08 01:24:52;;;;;;;10.80;6.25;;;;;;;18.22;100.00;100297.77;1479523;88;22491;-79
2023/06/08 01:27:24;;;;;;;12.83;6.20;;;;;;;18.17;100.00;100300.22;1455653;88;22218;-79
2023/06/08 01:29:51;;;;;;;10.08;5.83;;;;;;;18.12;100.00;100295.97;1481241;88;21688;-79
2023/06/08 01:32:23;;;;;;;11.97;4.97;;;;;;;18.07;100.00;100298.41;1478911;88;21456;-80
2023/06/08 01:34:47;;;;;;;12.98;4.95;;;;;;;18.03;100.00;100295.31;1473665;88;21463;-81
2023/06/08 01:37:19;;;;;;;11.53;5.00;;;;;;;17.98;100.00;100297.27;1474085;88;21494;-78
2023/06/08 01:40:00;;;;;;;8.98;5.70;;;;;;;17.95;100.00;100291.47;1484451;88;21501;-80
2023/06/08 01:42:27;;;;;;;12.63;4.95;;;;;;;17.96;100.00;100293.95;1474700;88;21531;-80
2023/06/08 01:45:17;;;;;;;8.35;5.62;;;;;;;18.01;100.00;100296.88;1479758;88;22411;-80
2023/06/08 01:47:50;;;;;;;10.75;5.28;;;;;;;18.03;100.00;100294.80;1439579;88;21656;-80
2023/06/08 01:50:18;;;;;;;9.60;5.80;;;;;;;18.06;100.00;100298.11;1473247;88;22499;-81
2023/06/08 01:52:44;;;;;;;5.92;5.30;;;;;;;18.07;100.00;100295.73;1480258;88;21346;-80
2023/06/08 01:55:22;;;;;;;7.20;5.67;;;;;;;18.06;100.00;100300.79;1468763;88;22213;-81
2023/06/08 01:57:49;;;;;;;8.25;5.05;;;;;;;18.02;100.00;100293.67;1474310;88;21332;-81
2023/06/08 02:00:18;;;;;;;12.60;5.22;;;;;;;18.01;100.00;100300.03;1457676;88;21376;-81
2023/06/08 02:02:45;;;;;;;7.47;5.08;;;;;;;17.97;100.00;100294.26;1471677;88;22447;-80
2023/06/08 02:05:13;;;;;;;10.38;5.83;;;;;;;17.99;100.00;100294.89;1476831;88;21887;-80
2023/06/08 02:07:41;;;;;;;9.58;4.90;;;;;;;18.02;100.00;100294.50;1472880;88;22581;-79
2023/06/08 02:10:09;;;;;;;12.90;5.90;;;;;;;18.03;100.00;100292.12;1477173;88;21464;-80
2023/06/08 02:12:35;;;;;;;9.98;6.28;;;;;;;18.05;100.00;100289.25;1474725;88;21339;-81
2023/06/08 02:15:03;;;;;;;9.15;4.20;;;;;;;18.06;100.00;100295.43;1474998;88;22263;-81
2023/06/08 02:17:35;;;;;;;8.95;4.28;;;;;;;18.08;100.00;100296.89;1478841;88;22456;-81
2023/06/08 02:20:06;;;;;;;8.60;4.40;;;;;;;18.12;100.00;100297.30;1479830;88;22355;-82
2023/06/08 02:22:35;;;;;;;6.12;4.65;;;;;;;18.12;100.00;100299.98;1479790;88;21490;-81
2023/06/08 02:25:03;;;;;;;7.42;5.25;;;;;;;18.09;100.00;100301.72;1479205;88;21570;-81
2023/06/08 02:27:30;;;;;;;12.85;5.65;;;;;;;18.03;100.00;100305.50;1472103;88;21509;-80
2023/06/08 02:29:59;;;;;;;7.05;4.62;;;;;;;17.98;100.00;100303.97;1479638;88;21450;-80
2023/06/08 02:32:25;;;;;;;7.92;5.12;;;;;;;17.95;100.00;100307.05;1477190;88;22032;-80
2023/06/08 02:34:55;;;;;;;9.28;5.30;;;;;;;17.94;100.00;100309.38;1483831;88;21354;-80
2023/06/08 02:37:24;;;;;;;;;;;;;;;17.90;100.00;100308.66;1488717;88;21400;-81
2023/06/08 02:39:51;;;;;;;8.18;5.12;;;;;;;17.85;100.00;100312.44;1477114;88;20459;-80
2023/06/08 02:42:18;;;;;;;10.50;5.67;;;;;;;17.85;100.00;100310.58;1471368;88;21272;-77
2023/06/08 02:44:45;;;;;;;6.83;5.87;;;;;;;17.87;100.00;100309.06;1483012;88;22196;-80
2023/06/08 02:47:13;;;;;;;11.70;4.90;;;;;;;17.89;100.00;100316.36;1480412;88;21347;-79
2023/06/08 02:49:40;;;;;;;6.40;4.92;;;;;;;17.88;100.00;100314.20;1483789;88;21339;-81
2023/06/08 02:52:07;;;;;;;9.78;5.53;;;;;;;17.89;100.00;100312.34;1478740;88;21569;-81
2023/06/08 02:54:33;;;;;;;7.00;5.30;;;;;;;17.90;100.00;100312.67;1477997;88;21296;-81
2023/06/08 02:57:00;;;;;;;9.05;5.53;;;;;;;17.88;100.00;100315.53;1472031;88;21392;-81
2023/06/08 02:59:27;;;;;;;7.90;5.60;;;;;;;17.89;100.00;100313.68;1492260;88;21428;-81
2023/06/08 03:01:54;;;;;;;7.30;5.40;;;;;;;17.93;100.00;100309.60;1477528;88;21310;-81
2023/06/08 03:04:24;;;;;;;7.00;5.42;;;;;;;17.96;100.00;100314.03;1480700;88;21272;-81
2023/06/08 03:06:54;;;;;;;8.53;5.03;;;;;;;17.99;100.00;100309.62;1483581;88;21538;-80
2023/06/08 03:09:28;;;;;;;11.40;5.72;;;;;;;18.04;100.00;100312.53;1478064;88;21368;-80
2023/06/08 03:11:54;;;;;;;8.38;5.72;;;;;;;18.06;100.00;100310.98;1486687;88;21546;-82
2023/06/08 03:14:21;;;;;;;9.13;6.58;;;;;;;18.07;100.00;100315.82;1486249;88;21398;-80
2023/06/08 03:16:47;;;;;;;10.68;6.03;;;;;;;18.08;100.00;100313.48;1470757;88;21376;-80
2023/06/08 03:19:15;;;;;;;8.97;6.67;;;;;;;18.08;100.00;100318.31;1480437;88;21470;-80
2023/06/08 03:21:44;;;;;;;8.65;4.70;;;;;;;18.08;100.00;100318.31;1481578;88;21354;-80
2023/06/08 03:24:11;;;;;;;10.18;5.25;;;;;;;18.09;100.00;100321.30;1479727;88;21494;-80
2023/06/08 03:26:38;;;;;;;13.72;5.10;;;;;;;18.10;100.00;100321.63;1479857;88;22307;-80
2023/06/08 03:29:05;;;;;;;10.55;5.55;;;;;;;18.12;100.00;100319.55;1489519;88;21377;-80
2023/06/08 03:31:36;;;;;;;14.07;6.10;;;;;;;18.14;100.00;100322.05;1481658;88;21309;-81
2023/06/08 03:33:59;;;;;;;8.18;5.55;;;;;;;18.15;100.00;100326.36;1474647;88;21502;-81
2023/06/08 03:36:33;;;;;;;9.18;5.00;;;;;;;18.16;100.00;100324.02;1475465;88;22174;-81
2023/06/08 03:39:02;;;;;;;11.40;4.92;;;;;;;18.16;100.00;100322.16;1480119;87;21516;-80
2023/06/08 03:41:29;;;;;;;6.92;4.87;;;;;;;18.17;100.00;100323.80;1477284;88;21346;-81
2023/06/08 03:43:55;;;;;;;8.23;4.72;;;;;;;18.20;100.00;100331.95;1483180;88;21360;-81
2023/06/08 03:46:24;;;;;;;5.70;5.05;;;;;;;18.22;100.00;100328.58;1487966;88;21368;-81
2023/06/08 03:48:50;;;;;;;7.55;4.58;;;;;;;18.24;100.00;100322.48;1478531;88;21443;-79
2023/06/08 03:51:18;;;;;;;9.63;5.75;;;;;;;18.27;100.00;100323.45;1478680;88;21391;-80
2023/06/08 03:53:46;;;;;;;11.43;5.40;;;;;;;18.28;100.00;100327.77;1477138;88;21473;-80
2023/06/08 03:56:12;;;;;;;8.15;5.53;;;;;;;18.29;100.00;100330.75;1483561;88;22352;-80
2023/06/08 03:58:41;;;;;;;9.75;6.35;;;;;;;18.30;100.00;100327.06;1472098;88;21339;-80
2023/06/08 04:01:07;;;;;;;7.15;5.78;;;;;;;18.28;100.00;100329.11;1458584;87;21420;-80
2023/06/08 04:03:34;;;;;;;10.40;5.35;;;;;;;18.26;100.00;100335.17;1478949;88;21376;-79
2023/06/08 04:06:00;;;;;;;9.83;5.28;;;;;;;18.24;100.00;100327.84;1488470;88;21412;-79
2023/06/08 04:08:31;;;;;;;14.13;5.85;;;;;;;18.24;100.00;100331.38;1477170;88;21428;-80
2023/06/08 04:10:55;;;;;;;8.50;5.33;;;;;;;18.26;100.00;100327.14;1473792;88;21538;-79
2023/06/08 04:13:21;;;;;;;7.35;4.75;;;;;;;18.31;100.00;100330.56;1463150;88;21309;-79
2023/06/08 04:15:49;;;;;;;10.72;5.08;;;;;;;18.34;100.00;100335.52;1480618;88;21399;-80
2023/06/08 04:18:15;;;;;;;8.10;5.00;;;;;;;18.40;100.00;100332.86;1458142;88;22588;-80
2023/06/08 04:20:42;;;;;;;9.05;5.17;;;;;;;18.46;100.00;100332.05;1473681;88;21302;-80
2023/06/08 04:23:10;;;;;;;10.48;5.10;;;;;;;18.49;100.00;100335.66;1475527;88;21303;-80
2023/06/08 04:25:36;;;;;;;7.70;4.58;;;;;;;18.55;100.00;100334.55;1476927;88;21457;-81
2023/06/08 04:28:03;;;;;;;12.37;5.58;;;;;;;18.60;100.00;100338.80;1483553;88;22219;-80
2023/06/08 04:30:30;;;;;;;7.28;5.10;;;;;;;18.63;100.00;100337.05;1481981;88;21369;-80
2023/06/08 04:32:57;;;;;;;9.00;5.55;;;;;;;18.67;100.00;100331.58;1472911;88;21398;-79
2023/06/08 04:35:23;;;;;;;12.58;6.53;;;;;;;18.71;100.00;100332.33;1484225;88;21302;-80
2023/06/08 04:37:49;;;;;;;6.95;5.45;;;;;;;18.77;100.00;100337.42;1480317;88;21524;-81
2023/06/08 04:40:16;;;;;;;5.37;4.83;;;;;;;18.81;100.00;100329.27;1484568;88;21324;-80
2023/06/08 04:42:44;;;;;;;8.60;5.45;;;;;;;18.85;100.00;100330.53;1476649;88;21376;-80
2023/06/08 04:45:11;;;;;;;7.62;5.10;;;;;;;18.90;100.00;100329.41;1475558;88;22387;-80
2023/06/08 04:47:40;;;;;;;10.72;5.62;;;;;;;19.00;100.00;100336.22;1480954;88;22018;-79
2023/06/08 04:50:07;;;;;;;6.75;4.72;;;;;;;19.04;100.00;100334.25;1476031;88;21398;-80
2023/06/08 04:52:45;;;;;;;10.28;5.78;;;;;;;19.12;100.00;100335.91;1474739;88;21391;-80
2023/06/08 04:55:13;;;;;;;7.85;5.10;;;;;;;19.15;100.00;100339.52;1477558;88;21420;-79
2023/06/08 04:57:41;;;;;;;7.08;5.25;;;;;;;19.17;100.00;100340.16;1477259;88;22412;-80
2023/06/08 05:00:09;;;;;;;9.38;5.03;;;;;;;19.21;100.00;100346.75;1481305;88;21243;-80
2023/06/08 05:02:38;;;;;;;6.85;5.35;;;;;;;19.26;100.00;100352.33;1487473;88;21376;-80
2023/06/08 05:05:07;;;;;;;7.67;4.62;;;;;;;19.24;100.00;100350.35;1482003;88;21280;-80
2023/06/08 05:07:33;;;;;;;5.67;4.95;;;;;;;19.26;100.00;100346.95;1478051;88;21420;-79
2023/06/08 05:10:01;;;;;;;8.68;4.67;;;;;;;19.27;100.00;100346.44;1462949;88;21564;-79
2023/06/08 05:12:28;;;;;;;8.90;5.47;;;;;;;19.27;100.00;100346.44;1489968;88;22167;-79
2023/06/08 05:15:00;;;;;;;10.25;5.40;;;;;;;19.30;100.00;100353.55;1483552;88;21288;-78
2023/06/08 05:17:23;;;;;;;9.25;5.37;;;;;;;19.32;100.00;100355.52;1475599;88;21464;-78
2023/06/08 05:19:51;;;;;;;8.58;5.40;;;;;;;19.35;100.00;100357.78;1480183;88;21491;-80
2023/06/08 05:22:18;;;;;;;12.23;5.25;;;;;;;19.38;100.00;100353.34;1477045;88;22331;-79
2023/06/08 05:24:44;;;;;;;8.38;5.15;;;;;;;19.46;100.00;100350.16;1479971;88;21317;-79
2023/06/08 05:27:10;;;;;;;6.03;5.03;;;;;;;19.50;100.00;100354.06;1477825;88;22307;-79
2023/06/08 05:29:37;;;;;;;8.23;4.85;;;;;;;19.54;100.00;100354.80;1452036;88;21354;-79
2023/06/08 05:32:04;;;;;;;7.55;5.20;;;;;;;19.57;100.00;100360.27;1479770;88;21443;-79
2023/06/08 05:34:30;;;;;;;9.85;5.05;;;;;;;19.61;100.00;100362.31;1476566;88;21443;-79
2023/06/08 05:36:56;;;;;;;13.68;4.92;;;;;;;19.61;100.00;100355.59;1457717;88;21354;-79
2023/06/08 05:39:22;;;;;;;6.92;4.95;;;;;;;19.61;100.00;100355.59;1473776;88;21576;-78
2023/06/08 05:41:48;;;;;;;9.03;4.55;;;;;;;19.67;100.00;100359.34;1483335;88;22256;-80
2023/06/08 05:44:15;;;;;;;11.18;4.45;;;;;;;19.72;100.00;100360.89;1473756;88;21384;-78
2023/06/08 05:46:41;;;;;;;8.95;4.85;;;;;;;19.76;100.00;100356.73;1478204;88;21476;-79
2023/06/08 05:49:07;;;;;;;7.95;4.97;;;;;;;19.82;100.00;100361.30;1465240;88;22285;-78
2023/06/08 05:51:33;;;;;;;4.87;4.40;;;;;;;19.93;100.00;100362.48;1483764;88;21478;-82
2023/06/08 05:54:00;;;;;;;8.58;5.87;;;;;;;20.07;100.00;100360.59;1482274;88;21332;-84
2023/06/08 05:56:27;;;;;;;11.10;5.53;;;;;;;20.19;99.83;100364.27;1479053;88;22211;-86
2023/06/08 05:58:53;;;;;;;9.50;4.97;;;;;;;20.33;99.66;100362.36;1458672;88;21502;-84
2023/06/08 06:01:20;;;;;;;11.03;4.58;;;;;;;20.47;99.15;100347.83;1473305;88;21435;-82
2023/06/08 06:03:50;;;;;;;5.45;4.80;;;;;;;20.53;98.47;100356.93;1478427;88;21302;-84
2023/06/08 06:06:17;;;;;;;7.53;4.75;;;;;;;20.62;97.23;100358.32;1477867;88;22426;-82
2023/06/08 06:08:43;;;;;;;8.10;4.60;;;;;;;20.72;97.13;100369.97;1478867;88;21939;-84
2023/06/08 06:11:18;;;;;;;7.05;4.97;;;;;;;20.80;96.39;100367.53;1468865;88;22109;-83
2023/06/08 06:13:44;;;;;;;8.13;4.97;;;;;;;20.84;94.77;100375.48;1482030;88;21405;-82
2023/06/08 06:16:10;;;;;;;7.33;5.03;;;;;;;20.86;94.10;100370.70;1478337;88;21435;-86
2023/06/08 06:18:37;;;;;;;9.45;5.37;;;;;;;20.88;93.38;100375.34;1461576;88;21318;-84
2023/06/08 06:21:03;;;;;;;7.72;5.10;;;;;;;20.90;93.16;100378.12;1481681;88;21361;-83
2023/06/08 06:23:29;;;;;;;7.90;4.40;;;;;;;20.92;92.76;100377.92;1500601;88;21324;-88
2023/06/08 06:25:55;;;;;;;7.35;4.28;;;;;;;20.92;92.24;100375.23;1486505;88;21490;-84
2023/06/08 06:28:22;;;;;;;8.40;4.53;;;;;;;20.86;90.65;100375.58;1476678;88;21385;-84
2023/06/08 06:30:49;;;;;;;8.63;4.65;;;;;;;20.79;91.29;100373.95;1460719;88;21413;-84
2023/06/08 06:33:15;;;;;;;11.63;5.20;;;;;;;20.76;91.41;100373.05;1480575;88;22373;-84
2023/06/08 06:35:42;;;;;;;9.80;4.70;;;;;;;20.71;91.11;100373.19;1481508;88;21325;-84
2023/06/08 06:38:08;;;;;;;6.92;4.55;;;;;;;20.66;90.90;100366.28;1486166;88;21443;-85
2023/06/08 06:40:34;;;;;;;9.58;4.25;;;;;;;20.69;91.35;100371.22;1472190;88;22219;-84
2023/06/08 06:43:00;;;;;;;8.75;4.60;;;;;;;20.81;91.69;100363.81;1474682;88;21333;-84
2023/06/08 06:52:33;;;;;;;7.97;4.58;;;;;;;21.15;89.08;100360.68;1439769;90;21378;-83
2023/06/08 06:55:03;;;;;;;6.97;4.47;;;;;;;21.26;89.31;100363.69;1451872;90;21583;-83
2023/06/08 06:57:32;;;;;;;12.25;4.92;;;;;;;21.34;87.82;100359.38;1453137;90;22026;-82
2023/06/08 06:59:59;;;;;;;7.12;4.08;;;;;;;21.40;87.45;100363.91;1452212;90;21612;-82
2023/06/08 07:02:28;;;;;;;6.90;4.45;;;;;;;21.56;84.51;100366.06;1447908;90;21370;-83
2023/06/08 07:04:54;;;;;;;12.90;4.50;;;;;;;21.73;85.03;100368.19;1450217;90;21471;-84
2023/06/08 07:07:23;;;;;;;6.28;3.72;;;;;;;21.85;85.17;100371.27;1453747;90;22347;-84
2023/06/08 07:09:48;;;;;;;5.83;4.35;;;;;;;21.90;83.42;100360.36;1426875;91;21501;-84
2023/06/08 07:12:15;;;;;;;8.95;3.92;;;;;;;21.83;82.48;100360.41;1451197;89;22481;-85
2023/06/08 07:14:41;;;;;;;10.48;6.20;;;;;;;21.83;83.52;100364.44;1452120;90;21631;-82
2023/06/08 07:17:07;;;;;;;8.38;3.95;;;;;;;21.83;83.39;100360.41;1415205;91;21383;-83
2023/06/08 07:19:35;;;;;;;13.60;4.40;;;;;;;21.79;83.51;100364.08;1445680;90;21408;-84
2023/06/08 07:22:01;;;;;;;16.23;5.33;;;;;;;21.72;83.67;100359.30;1448250;89;22342;-83
2023/06/08 07:24:27;;;;;;;7.33;4.75;;;;;;;21.72;84.23;100353.06;1364298;91;22400;-84
2023/06/08 07:26:53;;;;;;;11.97;5.10;;;;;;;21.73;84.15;100360.11;1385320;90;21391;-85
2023/06/08 07:29:20;;;;;;;7.70;4.97;;;;;;;21.75;83.51;100367.42;1366550;91;21423;-84
2023/06/08 07:31:46;;;;;;;13.83;5.42;;;;;;;21.72;82.64;100373.26;1379236;90;22256;-84
2023/06/08 07:34:12;;;;;;;10.75;4.47;;;;;;;21.69;82.35;100366.97;1380269;90;21328;-79
2023/06/08 07:36:38;;;;;;;11.43;5.30;;;;;;;21.69;81.83;100374.52;1379693;90;21317;-82
2023/06/08 07:39:05;;;;;;;7.22;4.40;;;;;;;21.68;82.05;100372.89;1379272;90;21416;-81
2023/06/08 07:41:31;;;;;;;17.27;6.58;;;;;;;21.66;82.41;100372.80;1379487;90;22087;-82
2023/06/08 07:43:58;;;;;;;16.40;7.55;;;;;;;21.68;82.55;100370.72;1359486;91;21327;-84
2023/06/08 07:46:24;;;;;;;10.00;5.25;;;;;;;21.72;82.66;100365.17;1379951;90;21473;-84
2023/06/08 07:48:50;;;;;;;11.73;5.85;;;;;;;21.75;82.64;100369.63;1379163;90;22097;-81
2023/06/08 07:51:17;;;;;;;13.45;7.22;;;;;;;21.78;82.66;100367.83;1381383;90;21324;-83
2023/06/08 07:53:43;;;;;;;14.13;4.40;;;;;;;21.87;83.07;100369.70;1422533;90;21496;-85
2023/06/08 07:56:09;;;;;;;14.80;5.67;;;;;;;21.94;82.41;100368.28;1452396;90;22373;-81
2023/06/08 07:58:37;;;;;;;12.23;5.60;;;;;;;21.98;81.52;100378.39;1449293;90;21437;-84
2023/06/08 08:01:03;;;;;;;14.75;5.95;;;;;;;22.01;81.43;100375.25;1447608;89;21429;-81
2023/06/08 08:03:29;;;;;;;9.95;5.17;;;;;;;22.05;80.90;100377.78;1453033;90;21378;-83
2023/06/08 08:05:58;;;;;;;11.83;5.28;;;;;;;22.07;81.06;100376.23;1443738;90;21393;-82
2023/06/08 08:08:24;;;;;;;9.13;5.55;;;;;;;22.12;81.43;100371.49;1446393;90;21467;-84
2023/06/08 08:10:50;;;;;;;8.00;5.62;;;;;;;22.13;81.20;100374.51;1448776;89;22346;-83
2023/06/08 08:13:17;;;;;;;12.98;6.20;;;;;;;22.07;81.20;100377.05;1445738;89;21378;-82
2023/06/08 08:15:45;;;;;;;9.03;5.45;;;;;;;22.07;82.31;100371.66;1442129;90;21394;-82
2023/06/08 08:22:32;;;;;;;9.05;5.50;;;;;;;22.19;83.53;100368.25;1443555;90;22612;-82
2023/06/08 08:24:59;;;;;;;10.98;4.80;;;;;;;22.28;83.67;100365.53;1445475;90;21519;-82
2023/06/08 08:27:25;;;;;;;10.58;5.35;;;;;;;22.39;83.86;100366.13;1429487;90;22777;-82
2023/06/08 08:29:51;;;;;;;9.30;5.65;;;;;;;22.55;84.07;100367.89;1448009;90;21849;-82
2023/06/08 08:32:17;;;;;;;11.15;4.90;;;;;;;22.72;83.22;100368.36;1448413;90;21356;-81
2023/06/08 08:34:43;;;;;;;7.12;5.08;;;;;;;22.84;83.66;100363.53;1449635;90;22538;-83
2023/06/08 08:37:12;;;;;;;11.53;5.22;;;;;;;22.97;82.90;100370.95;1434240;90;21379;-83
2023/06/08 08:39:37;;;;;;;16.32;5.50;;;;;;;23.18;81.96;100366.06;1433764;90;22952;-82
2023/06/08 08:42:07;;;;;;;9.80;4.65;;;;;;;23.34;81.36;100362.69;1433889;90;21379;-82
2023/06/08 08:44:34;;;;;;;11.65;5.42;;;;;;;23.45;81.72;100364.27;1441554;89;22377;-82
2023/06/08 08:47:03;;;;;;;8.78;5.50;;;;;;;23.72;81.79;100367.38;1359242;91;21320;-84
2023/06/08 08:49:40;;;;;;;7.87;5.28;;;;;;;23.87;79.71;100364.47;1370670;90;21319;-84
2023/06/08 08:52:08;;;;;;;12.18;5.08;;;;;;;23.91;79.56;100365.34;1371581;90;21460;-84
2023/06/08 08:54:33;;;;;;;9.00;5.60;;;;;;;23.99;78.42;100364.44;1527373;90;21422;-83
2023/06/08 08:57:02;;;;;;;9.43;4.80;;;;;;;24.06;78.73;100362.98;1372707;90;21327;-83
2023/06/08 08:59:28;;;;;;;8.10;4.72;;;;;;;24.02;77.12;100359.91;1371289;89;21390;-83
2023/06/08 09:01:56;;;;;;;8.18;5.05;;;;;;;24.35;78.46;100361.68;1422712;90;21637;-83
2023/06/08 09:04:23;;;;;;;7.25;4.70;;;;;;;24.66;76.93;100363.94;1359000;91;21328;-82
2023/06/08 09:06:51;;;;;;;9.75;5.08;;;;;;;24.71;76.39;100355.89;1371485;90;21488;-82
2023/06/08 09:09:17;;;;;;;8.68;4.78;;;;;;;24.88;76.72;100351.05;1364726;91;21320;-83
2023/06/08 09:11:59;;;;;;;12.80;5.47;;;;;;;25.01;74.95;100346.69;1373239;90;22192;-82
2023/06/08 09:14:27;;;;;;;10.48;5.10;;;;;;;24.90;74.46;100350.29;1369173;90;21343;-83
2023/06/08 09:16:54;;;;;;;9.53;4.80;;;;;;;24.74;74.91;100352.73;1371234;90;22207;-83
2023/06/08 09:19:22;;;;;;;8.50;5.10;;;;;;;24.54;74.59;100353.17;1372287;90;21461;-82
2023/06/08 09:21:49;;;;;;;8.33;4.55;;;;;;;24.55;74.97;100351.28;1370853;90;21298;-82
2023/06/08 09:24:22;;;;;;;10.65;5.00;;;;;;;24.65;74.98;100349.29;1373253;90;21276;-81
2023/06/08 09:26:59;;;;;;;5.00;4.35;;;;;;;24.76;74.73;100347.06;1509401;90;21496;-84
2023/06/08 09:29:40;;;;;;;7.35;5.05;;;;;;;24.96;74.95;100335.77;1443907;90;21941;-82
2023/06/08 09:32:16;;;;;;;5.75;4.62;;;;;;;24.85;71.16;100336.66;1442112;89;21610;-82
2023/06/08 09:35:01;;;;;;;11.50;4.35;;;;;;;25.13;74.19;100337.95;1527587;90;21357;-82
2023/06/08 09:37:27;;;;;;;6.62;4.47;;;;;;;25.56;74.32;100329.70;1527321;90;21387;-80
2023/06/08 09:39:55;;;;;;;7.25;4.80;;;;;;;26.05;73.87;100329.84;1369614;90;22155;-83
2023/06/08 09:42:22;;;;;;;13.43;5.10;;;;;;;26.27;71.89;100327.67;1379136;90;21254;-83
2023/06/08 09:44:48;;;;;;;8.55;4.55;;;;;;;26.36;70.55;100326.69;1479614;90;22310;-85
2023/06/08 09:47:26;;;;;;;7.08;4.40;;;;;;;26.36;69.35;100318.00;1446225;89;21430;-83
2023/06/08 09:49:58;;;;;;;7.53;4.58;;;;;;;26.22;70.02;100317.57;1427215;90;21430;-83
2023/06/08 09:52:24;;;;;;;8.15;5.15;;;;;;;26.13;70.12;100316.39;1448377;90;22472;-82
2023/06/08 09:54:52;;;;;;;10.08;4.75;;;;;;;26.08;70.22;100313.06;1447867;90;21446;-82
2023/06/08 09:57:20;;;;;;;8.18;4.20;;;;;;;26.03;70.10;100313.00;1441778;90;21675;-84
2023/06/08 09:59:58;;;;;;;5.33;4.03;;;;;;;26.09;70.21;100307.91;1442259;90;21953;-82
2023/06/08 10:02:32;;;;;;;10.72;4.12;;;;;;;26.28;69.30;100295.39;1445235;89;21482;-83
2023/06/08 10:05:04;;;;;;;13.43;4.37;;;;;;;26.45;68.39;100300.19;1443948;90;21559;-84
2023/06/08 10:07:35;;;;;;;8.58;4.42;;;;;;;26.51;67.79;100293.77;1433220;90;21672;-86
2023/06/08 10:10:13;;;;;;;10.03;5.30;;;;;;;26.47;67.81;100292.62;1450655;90;21533;-83
2023/06/08 10:12:39;;;;;;;9.53;4.28;;;;;;;26.52;68.07;100285.89;1527473;89;21239;-82
2023/06/08 10:15:07;;;;;;;9.15;4.42;;;;;;;26.47;68.07;100285.84;1372330;90;22239;-82
2023/06/08 10:17:34;;;;;;;8.10;4.45;;;;;;;26.37;67.75;100285.72;1358429;91;21344;-83
2023/06/08 10:20:00;;;;;;;9.60;4.87;;;;;;;26.31;67.08;100278.61;1378020;90;21409;-85
2023/06/08 10:22:28;;;;;;;14.28;4.17;;;;;;;26.35;66.58;100279.72;1527423;89;21166;-83
2023/06/08 10:24:56;;;;;;;9.90;4.85;;;;;;;26.37;66.24;100276.22;1372215;90;22039;-84
2023/06/08 10:27:29;;;;;;;6.37;4.12;;;;;;;26.50;66.49;100275.86;1370906;90;21446;-87
2023/06/08 10:30:04;;;;;;;7.10;4.55;;;;;;;26.62;65.83;100274.33;1368688;89;21255;-87
2023/06/08 10:32:42;;;;;;;6.55;4.65;;;;;;;26.68;65.26;100272.48;1527232;89;21276;-84
2023/06/08 10:35:10;;;;;;;12.10;4.90;;;;;;;26.88;64.48;100269.94;1527536;89;21202;-84
2023/06/08 10:37:41;;;;;;;4.67;3.67;;;;;;;27.12;64.33;100262.23;1370867;90;22273;-83
2023/06/08 10:40:10;;;;;;;9.00;4.60;;;;;;;27.34;63.33;100258.61;1369386;91;21291;-84
2023/06/08 10:42:55;;;;;;;9.93;4.97;;;;;;;27.48;64.07;100261.66;1370408;90;22127;-84
2023/06/08 10:45:35;;;;;;;9.43;4.75;;;;;;;27.76;64.49;100255.80;1502710;90;21290;-84
2023/06/08 10:48:09;;;;;;;9.10;4.58;;;;;;;27.96;63.53;100255.64;1441253;90;21392;-83
2023/06/08 10:50:43;;;;;;;8.43;3.80;;;;;;;28.25;60.58;100252.72;1425983;90;21466;-83
2023/06/08 10:53:09;;;;;;;7.05;3.90;;;;;;;28.42;59.06;100247.06;1436735;89;21393;-84
2023/06/08 10:55:35;;;;;;;4.78;3.58;;;;;;;28.36;56.10;100244.03;1427194;90;21386;-82
2023/06/08 10:58:25;;;;;;;7.47;4.60;;;;;;;28.42;58.05;100242.98;1446204;89;21422;-80
2023/06/08 11:00:53;;;;;;;7.17;3.90;;;;;;;28.51;58.34;100233.73;1444489;90;21526;-82
2023/06/08 11:03:21;;;;;;;8.58;4.40;;;;;;;28.63;58.13;100231.59;1452712;90;21438;-85
2023/06/08 11:05:53;;;;;;;7.50;4.20;;;;;;;28.84;58.04;100231.58;1436337;90;22301;-84
2023/06/08 11:08:20;;;;;;;12.10;4.03;;;;;;;29.05;57.39;100225.02;1356493;92;21328;-85
2023/06/08 11:10:53;;;;;;;9.90;4.58;;;;;;;28.83;54.06;100225.31;1442113;90;21408;-82
2023/06/08 11:13:23;;;;;;;5.25;3.33;;;;;;;28.64;54.77;100223.67;1527233;89;22388;-82
2023/06/08 11:15:49;;;;;;;6.42;3.50;;;;;;;28.61;50.20;100222.05;1413855;90;21393;-86
2023/06/08 11:18:20;;;;;;;6.25;3.95;;;;;;;28.62;49.85;100218.23;1446108;90;21570;-83
2023/06/08 11:20:46;;;;;;;6.95;3.70;;;;;;;28.65;50.79;100213.05;1445609;90;21521;-83
2023/06/08 11:23:13;;;;;;;8.30;5.20;;;;;;;28.74;48.79;100214.16;1445208;90;21409;-84
2023/06/08 11:25:40;;;;;;;12.47;3.90;;;;;;;28.91;49.32;100200.22;1448515;90;21385;-85
2023/06/08 11:28:13;;;;;;;8.98;3.92;;;;;;;29.17;48.64;100201.56;1447787;90;21605;-84
2023/06/08 11:30:39;;;;;;;6.70;4.37;;;;;;;29.39;48.82;100205.33;1446314;90;21803;-84
2023/06/08 11:33:09;;;;;;;10.53;5.83;;;;;;;29.44;47.65;100203.95;1448505;90;22311;-83
2023/06/08 11:35:40;;;;;;;;;;;;;;;29.57;48.28;100210.15;1444509;90;22991;-86
2023/06/08 11:38:07;;;;;;;9.03;3.98;;;;;;;29.59;46.56;100199.78;1435247;90;20325;-86